Terminal Aerodrome Forecast
Issued by NWS

Home | Current Version | Previous Version | Text Only | Print | Product List | Glossary Off
Versions: 1 2 3 4 5 6 7 8 9 10 11 12 13 14 15 16 17 18 19 20 21 22 23 24 25

000
FTUS41 KCLE 251700
TAFFDY
TAF
KFDY 251731Z 2518/2618 VRB04KT P6SM SCT040
     FM260000 VRB04KT P6SM SCT250
     FM260400 17004KT P6SM BKN250
     FM261000 21006KT P6SM SCT100 BKN250
     FM261500 24008KT P6SM SCT035 BKN250=

USA.gov is the U.S. government's official web portal to all federal, state and local government web resources and services.